Time,TemperatureF,DewpointF,PressureIn,WindDirection,WindDirectionDegrees,WindSpeedMPH,WindSpeedGustMPH,Humidity,HourlyPrecipIn,Conditions,Clouds,dailyrainin,SoftwareType,DateUTC
2013-03-12 00:10:00,41.0,36.8,29.78,East,90,0.0,-999.0,85,-99.99,,,0.00,Acu-Link.com,2013-03-12 04:10:00,
2013-03-12 00:25:00,41.0,36.8,29.79,WSW,247,1.1,-999.0,85,-99.99,,,0.00,Acu-Link.com,2013-03-12 04:25:00,
2013-03-12 00:41:00,41.0,37.1,29.78,NNE,22,0.0,-999.0,86,-99.99,,,0.00,Acu-Link.com,2013-03-12 04:41:00,
2013-03-12 00:56:00,40.6,37.0,29.78,SSW,202,0.0,-999.0,87,-99.99,,,0.00,Acu-Link.com,2013-03-12 04:56:00,
2013-03-12 01:11:00,40.6,37.3,29.78,NNE,22,0.0,-999.0,88,-99.99,,,0.00,Acu-Link.com,2013-03-12 05:11:00,
2013-03-12 01:27:00,40.8,38.1,29.78,South,180,0.0,-999.0,90,-99.99,,,0.00,Acu-Link.com,2013-03-12 05:27:00,
2013-03-12 01:42:00,40.6,37.0,29.78,SSE,157,0.0,-999.0,87,-99.99,,,0.00,Acu-Link.com,2013-03-12 05:42:00,
2013-03-12 01:57:00,40.3,36.7,29.77,NNE,22,0.0,-999.0,87,-99.99,,,0.00,Acu-Link.com,2013-03-12 05:57:00,
2013-03-12 02:12:00,40.1,36.5,29.77,SSW,202,0.0,-999.0,87,-99.99,,,0.00,Acu-Link.com,2013-03-12 06:12:00,
2013-03-12 02:28:00,39.9,35.5,29.78,WNW,292,1.1,-999.0,84,-99.99,,,0.00,Acu-Link.com,2013-03-12 06:28:00,
2013-03-12 02:43:00,39.9,35.8,29.79,NNW,337,0.0,-999.0,85,-99.99,,,0.00,Acu-Link.com,2013-03-12 06:43:00,
2013-03-12 02:58:00,39.9,35.8,29.79,NNW,337,0.0,-999.0,85,-99.99,,,0.00,Acu-Link.com,2013-03-12 06:58:00,
2013-03-12 03:13:00,39.6,35.8,29.79,NNE,22,0.0,-999.0,86,-99.99,,,0.00,Acu-Link.com,2013-03-12 07:13:00,
2013-03-12 03:28:00,39.6,35.2,29.79,West,270,0.0,-999.0,84,-99.99,,,0.00,Acu-Link.com,2013-03-12 07:28:00,
2013-03-12 03:44:00,39.4,35.3,29.79,NW,315,0.0,-999.0,85,-99.99,,,0.00,Acu-Link.com,2013-03-12 07:44:00,
2013-03-12 03:59:00,39.4,35.6,29.79,NNE,22,0.0,-999.0,86,-99.99,,,0.00,Acu-Link.com,2013-03-12 07:59:00,
2013-03-12 04:16:00,39.2,35.1,29.79,NW,315,0.0,-999.0,85,-99.99,,,0.00,Acu-Link.com,2013-03-12 08:16:00,
2013-03-12 04:46:00,38.8,34.1,29.79,South,180,0.0,-999.0,83,-99.99,,,0.00,Acu-Link.com,2013-03-12 08:46:00,
2013-03-12 05:02:00,38.5,33.2,29.79,NW,315,0.0,-999.0,81,-99.99,,,0.00,Acu-Link.com,2013-03-12 09:02:00,
2013-03-12 05:17:00,38.5,33.2,29.79,NW,315,0.0,-999.0,81,-99.99,,,0.00,Acu-Link.com,2013-03-12 09:17:00,
2013-03-12 05:32:00,38.3,33.3,29.80,NNE,22,0.0,-999.0,82,-99.99,,,0.00,Acu-Link.com,2013-03-12 09:32:00,
2013-03-12 05:47:00,38.3,33.0,29.81,NNE,22,0.0,-999.0,81,-99.99,,,0.00,Acu-Link.com,2013-03-12 09:47:00,
2013-03-12 06:03:00,37.9,32.6,29.82,South,180,0.0,-999.0,81,-99.99,,,0.00,Acu-Link.com,2013-03-12 10:03:00,
2013-03-12 06:18:00,37.9,33.5,29.82,WSW,247,0.0,-999.0,84,-99.99,,,0.00,Acu-Link.com,2013-03-12 10:18:00,
2013-03-12 06:33:00,37.9,34.4,29.83,SW,225,0.0,-999.0,87,-99.99,,,0.00,Acu-Link.com,2013-03-12 10:33:00,
2013-03-12 06:48:00,37.6,34.4,29.83,SW,225,0.0,-999.0,88,-99.99,,,0.00,Acu-Link.com,2013-03-12 10:48:00,
2013-03-12 07:03:00,37.4,33.9,29.84,North,0,0.0,-999.0,87,-99.99,,,0.00,Acu-Link.com,2013-03-12 11:03:00,
2013-03-12 07:19:00,37.2,34.0,29.84,NNE,22,0.0,-999.0,88,-99.99,,,0.00,Acu-Link.com,2013-03-12 11:19:00,
2013-03-12 07:34:00,37.4,34.2,29.85,ESE,112,0.0,-999.0,88,-99.99,,,0.00,Acu-Link.com,2013-03-12 11:34:00,
2013-03-12 07:49:00,37.2,32.8,29.86,South,180,0.0,-999.0,84,-99.99,,,0.00,Acu-Link.com,2013-03-12 11:49:00,
2013-03-12 08:04:00,37.0,32.9,29.86,SW,225,0.0,-999.0,85,-99.99,,,0.00,Acu-Link.com,2013-03-12 12:04:00,
2013-03-12 08:20:00,36.9,32.8,29.87,WSW,247,1.1,-999.0,85,-99.99,,,0.00,Acu-Link.com,2013-03-12 12:20:00,
2013-03-12 08:35:00,37.0,32.3,29.86,SSE,157,0.0,-999.0,83,-99.99,,,0.00,Acu-Link.com,2013-03-12 12:35:00,
2013-03-12 08:50:00,37.0,31.7,29.87,WSW,247,2.7,-999.0,81,-99.99,,,0.00,Acu-Link.com,2013-03-12 12:50:00,
2013-03-12 09:05:00,37.0,31.1,29.88,SW,225,0.0,-999.0,79,-99.99,,,0.00,Acu-Link.com,2013-03-12 13:05:00,
2013-03-12 09:51:00,37.4,31.5,29.90,SSW,202,0.0,-999.0,79,-99.99,,,0.00,Acu-Link.com,2013-03-12 13:51:00,
2013-03-12 10:06:00,37.8,31.9,29.90,South,180,0.0,-999.0,79,-99.99,,,0.00,Acu-Link.com,2013-03-12 14:06:00,
2013-03-12 10:22:00,38.3,31.1,29.90,WSW,247,0.0,-999.0,75,-99.99,,,0.00,Acu-Link.com,2013-03-12 14:22:00,
2013-03-12 10:37:00,38.3,30.4,29.90,WSW,247,2.2,-999.0,73,-99.99,,,0.00,Acu-Link.com,2013-03-12 14:37:00,
2013-03-12 10:53:00,38.8,30.6,29.91,SSW,202,1.1,-999.0,72,-99.99,,,0.00,Acu-Link.com,2013-03-12 14:53:00,
2013-03-12 11:08:00,39.6,30.3,29.91,WSW,247,2.2,-999.0,69,-99.99,,,0.00,Acu-Link.com,2013-03-12 15:08:00,
2013-03-12 11:23:00,40.1,29.7,29.92,WSW,247,2.2,-999.0,66,-99.99,,,0.00,Acu-Link.com,2013-03-12 15:23:00,
2013-03-12 11:38:00,39.9,30.2,29.93,East,90,3.7,-999.0,68,-99.99,,,0.00,Acu-Link.com,2013-03-12 15:38:00,
2013-03-12 11:54:00,39.7,30.0,29.94,SSW,202,2.2,-999.0,68,-99.99,,,0.00,Acu-Link.com,2013-03-12 15:54:00,
2013-03-12 12:09:00,40.1,30.4,29.94,NNE,22,2.7,-999.0,68,-99.99,,,0.00,Acu-Link.com,2013-03-12 16:09:00,
2013-03-12 12:24:00,40.5,31.1,29.94,West,270,1.1,-999.0,69,-99.99,,,0.00,Acu-Link.com,2013-03-12 16:24:00,
2013-03-12 12:40:00,41.7,31.2,29.93,NNE,22,1.7,-999.0,66,-99.99,,,0.00,Acu-Link.com,2013-03-12 16:40:00,
2013-03-12 12:55:00,40.6,31.6,29.92,North,0,2.2,-999.0,70,-99.99,,,0.00,Acu-Link.com,2013-03-12 16:55:00,
2013-03-12 13:10:00,40.8,31.4,29.93,NNW,337,2.2,-999.0,69,-99.99,,,0.00,Acu-Link.com,2013-03-12 17:10:00,
2013-03-12 13:26:00,40.6,31.2,29.93,East,90,3.7,-999.0,69,-99.99,,,0.00,Acu-Link.com,2013-03-12 17:26:00,
2013-03-12 13:41:00,42.8,32.6,29.93,NNE,22,2.2,-999.0,67,-99.99,,,0.00,Acu-Link.com,2013-03-12 17:41:00,
2013-03-12 14:11:00,43.0,33.2,29.92,ENE,67,1.7,-999.0,68,-99.99,,,0.00,Acu-Link.com,2013-03-12 18:11:00,
2013-03-12 14:27:00,43.9,33.7,29.92,SW,225,2.7,-999.0,67,-99.99,,,0.00,Acu-Link.com,2013-03-12 18:27:00,
2013-03-12 14:42:00,44.1,34.2,29.91,NNW,337,2.2,-999.0,68,-99.99,,,0.00,Acu-Link.com,2013-03-12 18:42:00,
2013-03-12 14:57:00,45.5,33.6,29.91,WSW,247,3.7,-999.0,63,-99.99,,,0.00,Acu-Link.com,2013-03-12 18:57:00,
2013-03-12 15:13:00,46.6,35.1,29.91,ESE,112,4.7,-999.0,64,-99.99,,,0.00,Acu-Link.com,2013-03-12 19:13:00,
2013-03-12 15:28:00,45.5,34.0,29.90,West,270,2.2,-999.0,64,-99.99,,,0.00,Acu-Link.com,2013-03-12 19:28:00,
2013-03-12 15:44:00,46.9,35.0,29.90,WSW,247,3.7,-999.0,63,-99.99,,,0.00,Acu-Link.com,2013-03-12 19:44:00,
2013-03-12 15:59:00,49.8,35.6,29.89,ESE,112,3.2,-999.0,58,-99.99,,,0.00,Acu-Link.com,2013-03-12 19:59:00,
2013-03-12 16:14:00,49.6,35.4,29.90,NE,45,4.2,-999.0,58,-99.99,,,0.00,Acu-Link.com,2013-03-12 20:14:00,
2013-03-12 16:29:00,48.9,35.6,29.89,West,270,0.0,-999.0,60,-99.99,,,0.00,Acu-Link.com,2013-03-12 20:29:00,
2013-03-12 16:44:00,51.1,36.0,29.89,South,180,4.7,-999.0,56,-99.99,,,0.00,Acu-Link.com,2013-03-12 20:44:00,
2013-03-12 17:00:00,51.1,36.0,29.89,SSW,202,2.7,-999.0,56,-99.99,,,0.00,Acu-Link.com,2013-03-12 21:00:00,
2013-03-12 17:16:00,51.6,35.5,29.89,South,180,4.2,-999.0,54,-99.99,,,0.00,Acu-Link.com,2013-03-12 21:16:00,
2013-03-12 18:01:00,52.7,35.6,29.89,NNW,337,2.7,-999.0,52,-99.99,,,0.00,Acu-Link.com,2013-03-12 22:01:00,
2013-03-12 18:16:00,51.6,34.6,29.89,South,180,3.7,-999.0,52,-99.99,,,0.00,Acu-Link.com,2013-03-12 22:16:00,
2013-03-12 18:32:00,54.9,35.1,29.89,South,180,2.7,-999.0,47,-99.99,,,0.00,Acu-Link.com,2013-03-12 22:32:00,
2013-03-12 18:47:00,55.4,35.5,29.89,NW,315,0.0,-999.0,47,-99.99,,,0.00,Acu-Link.com,2013-03-12 22:47:00,
2013-03-12 19:02:00,54.0,35.8,29.89,SSW,202,0.0,-999.0,50,-99.99,,,0.00,Acu-Link.com,2013-03-12 23:02:00,
2013-03-12 19:18:00,51.8,35.2,29.90,ENE,67,0.0,-999.0,53,-99.99,,,0.00,Acu-Link.com,2013-03-12 23:18:00,
2013-03-12 19:33:00,49.1,34.5,29.89,North,0,0.0,-999.0,57,-99.99,,,0.00,Acu-Link.com,2013-03-12 23:33:00,
2013-03-12 20:03:00,44.4,32.6,29.90,NNE,22,0.0,-999.0,63,-99.99,,,0.00,Acu-Link.com,2013-03-13 00:03:00,
2013-03-12 20:18:00,43.5,32.9,29.90,NNE,22,0.0,-999.0,66,-99.99,,,0.00,Acu-Link.com,2013-03-13 00:18:00,
2013-03-12 20:34:00,42.1,32.7,29.90,NNE,22,0.0,-999.0,69,-99.99,,,0.00,Acu-Link.com,2013-03-13 00:34:00,
2013-03-12 20:49:00,41.5,33.2,29.91,South,180,0.0,-999.0,72,-99.99,,,0.00,Acu-Link.com,2013-03-13 00:49:00,
2013-03-12 21:04:00,40.1,31.5,29.91,NE,45,0.0,-999.0,71,-99.99,,,0.00,Acu-Link.com,2013-03-13 01:04:00,
2013-03-12 21:20:00,39.4,31.1,29.91,NE,45,0.0,-999.0,72,-99.99,,,0.00,Acu-Link.com,2013-03-13 01:20:00,
2013-03-12 21:35:00,38.3,31.1,29.91,East,90,0.0,-999.0,75,-99.99,,,0.00,Acu-Link.com,2013-03-13 01:35:00,
2013-03-12 21:50:00,37.9,30.7,29.92,East,90,0.0,-999.0,75,-99.99,,,0.00,Acu-Link.com,2013-03-13 01:50:00,
2013-03-12 22:05:00,37.9,31.0,29.92,NNE,22,0.0,-999.0,76,-99.99,,,0.00,Acu-Link.com,2013-03-13 02:05:00,
2013-03-12 22:21:00,37.4,31.2,29.93,NE,45,0.0,-999.0,78,-99.99,,,0.00,Acu-Link.com,2013-03-13 02:21:00,
2013-03-12 22:36:00,36.3,30.4,29.94,NNE,22,0.0,-999.0,79,-99.99,,,0.00,Acu-Link.com,2013-03-13 02:36:00,
2013-03-12 22:51:00,35.6,30.4,29.94,NNE,22,0.0,-999.0,81,-99.99,,,0.00,Acu-Link.com,2013-03-13 02:51:00,
2013-03-12 23:07:00,35.1,30.5,29.95,NNE,22,0.0,-999.0,83,-99.99,,,0.00,Acu-Link.com,2013-03-13 03:07:00,
2013-03-12 23:22:00,34.2,30.5,29.95,East,90,0.0,-999.0,86,-99.99,,,0.00,Acu-Link.com,2013-03-13 03:22:00,
2013-03-12 23:37:00,34.0,30.5,29.95,ENE,67,0.0,-999.0,87,-99.99,,,0.00,Acu-Link.com,2013-03-13 03:37:00,
2013-03-12 23:53:00,33.6,30.4,29.96,ESE,112,0.0,-999.0,88,-99.99,,,0.00,Acu-Link.com,2013-03-13 03:53:00,